createdAt,value
2019-05-30T00:03:16.635Z,1.77
2019-05-30T00:07:20.569Z,2.10
2019-05-30T00:11:24.096Z,1.87
2019-05-30T00:15:27.791Z,2.02
2019-05-30T00:19:33.925Z,2.00
2019-05-30T00:23:37.663Z,1.80
2019-05-30T00:27:41.122Z,2.02
2019-05-30T00:31:44.579Z,1.92
2019-05-30T00:35:48.034Z,1.57
2019-05-30T00:39:51.734Z,1.60
2019-05-30T00:43:55.900Z,1.50
2019-05-30T00:48:00.115Z,1.47
2019-05-30T00:52:05.072Z,1.42
2019-05-30T00:56:09.091Z,1.30
2019-05-30T01:00:12.670Z,1.50
2019-05-30T01:04:16.450Z,1.25
2019-05-30T01:08:19.902Z,1.20
2019-05-30T01:12:23.603Z,1.80
2019-05-30T01:16:27.066Z,1.30
2019-05-30T01:20:30.525Z,1.62
2019-05-30T01:24:33.983Z,1.50
2019-05-30T01:28:37.432Z,1.70
2019-05-30T01:32:41.133Z,2.00
2019-05-30T01:36:44.584Z,1.73
2019-05-30T01:40:48.282Z,1.90
2019-05-30T01:44:51.750Z,1.52
2019-05-30T01:48:55.203Z,1.82
2019-05-30T01:52:58.649Z,2.17
2019-05-30T01:57:02.619Z,2.80
2019-05-30T02:01:19.143Z,2.90
2019-05-30T02:05:12.194Z,2.63
2019-05-30T02:09:15.655Z,2.52
2019-05-30T02:13:19.194Z,2.30
2019-05-30T02:22:25.872Z,2.20
2019-05-30T02:26:29.313Z,1.85
2019-05-30T02:30:32.776Z,2.00
2019-05-30T02:34:36.221Z,2.60
2019-05-30T02:38:39.923Z,2.08
2019-05-30T02:42:43.395Z,2.50
2019-05-30T02:46:46.911Z,2.40
2019-05-30T02:50:50.463Z,2.55
2019-05-30T02:54:54.168Z,2.52
2019-05-30T02:58:57.624Z,2.45
2019-05-30T03:03:01.961Z,2.22
2019-05-30T03:07:07.119Z,2.00
2019-05-30T03:11:15.399Z,2.43
2019-05-30T03:15:19.370Z,2.33
2019-05-30T03:19:23.089Z,2.10
2019-05-30T03:23:27.544Z,2.58
2019-05-30T03:27:31.006Z,2.87
2019-05-30T03:31:36.522Z,2.35
2019-05-30T03:35:43.537Z,2.47
2019-05-30T03:39:45.552Z,3.67
2019-05-30T03:43:49.069Z,3.22
2019-05-30T03:47:55.592Z,3.90
2019-05-30T03:52:04.702Z,3.65
2019-05-30T03:56:12.053Z,3.05
2019-05-30T04:00:24.848Z,3.42
2019-05-30T04:04:31.380Z,3.15
2019-05-30T04:08:36.998Z,3.03
2019-05-30T04:13:19.088Z,3.10
2019-05-30T04:17:22.025Z,3.10
2019-05-30T04:21:25.503Z,2.67
2019-05-30T04:25:28.944Z,3.12
2019-05-30T04:29:32.777Z,2.50
2019-05-30T04:33:36.586Z,2.27
2019-05-30T04:37:40.028Z,1.90
2019-05-30T04:41:43.472Z,2.50
2019-05-30T04:45:47.190Z,1.70
2019-05-30T04:49:50.686Z,1.87
2019-05-30T04:53:54.176Z,1.55
2019-05-30T04:57:58.616Z,1.30
2019-05-30T05:02:02.069Z,1.70
2019-05-30T05:06:05.520Z,1.32
2019-05-30T05:10:09.344Z,1.10
2019-05-30T05:14:14.220Z,1.32
2019-05-30T05:18:19.245Z,1.80
2019-05-30T05:22:23.370Z,1.35
2019-05-30T05:26:26.995Z,1.55
2019-05-30T05:30:30.468Z,1.10
2019-05-30T05:34:33.916Z,1.02
2019-05-30T05:38:37.632Z,1.22
2019-05-30T05:42:41.092Z,1.35
2019-05-30T05:46:44.566Z,1.12
2019-05-30T05:50:48.057Z,1.20
2019-05-30T05:54:51.545Z,1.35
2019-05-30T05:58:55.076Z,1.45
2019-05-30T06:02:58.609Z,1.10
2019-05-30T06:07:08.153Z,1.45
2019-05-30T06:11:11.971Z,1.22
2019-05-30T06:15:16.761Z,1.32
2019-05-30T06:19:27.440Z,1.10
2019-05-30T06:23:32.919Z,1.50
2019-05-30T06:27:36.379Z,1.47
2019-05-30T06:31:39.883Z,1.47
2019-05-30T06:35:43.607Z,1.30
2019-05-30T06:39:47.213Z,1.20
2019-05-30T06:43:50.980Z,1.60
2019-05-30T06:47:54.475Z,1.72
2019-05-30T06:51:57.934Z,1.55
2019-05-30T06:56:01.453Z,1.57
2019-05-30T07:00:08.659Z,1.70
2019-05-30T07:04:17.221Z,1.70
2019-05-30T07:08:20.991Z,1.70
2019-05-30T07:12:27.145Z,1.67
2019-05-30T07:16:31.439Z,1.80
2019-05-30T07:20:35.096Z,1.70
2019-05-30T07:24:38.611Z,1.60
2019-05-30T07:28:42.471Z,1.67
2019-05-30T07:32:45.931Z,1.67
2019-05-30T07:36:49.904Z,2.02
2019-05-30T07:40:53.360Z,1.50
2019-05-30T07:44:56.822Z,1.50
2019-05-30T07:49:00.348Z,1.77
2019-05-30T07:57:22.660Z,1.60
2019-05-30T08:05:30.617Z,1.85
2019-05-30T08:09:35.042Z,1.93
2019-05-30T08:13:38.888Z,1.42
2019-05-30T08:17:44.428Z,2.17
2019-05-30T08:21:47.989Z,1.33
2019-05-30T08:25:51.755Z,1.60
2019-05-30T08:29:55.254Z,1.15
2019-05-30T08:33:58.707Z,1.30
2019-05-30T08:38:02.633Z,1.27
2019-05-30T08:42:06.092Z,1.53
2019-05-30T08:46:09.582Z,1.50
2019-05-30T08:50:13.694Z,1.80
2019-05-30T08:54:17.147Z,1.40
2019-05-30T08:58:20.949Z,1.70
2019-05-30T09:02:24.534Z,1.65
2019-05-30T09:06:28.072Z,1.62
2019-05-30T09:10:31.845Z,1.30
2019-05-30T09:14:37.386Z,1.55
2019-05-30T09:18:41.602Z,1.20
2019-05-30T09:22:45.585Z,1.30
2019-05-30T09:26:50.491Z,1.20
2019-05-30T09:30:54.306Z,1.40
2019-05-30T09:34:57.765Z,1.40
2019-05-30T09:39:01.227Z,1.47
2019-05-30T09:43:04.776Z,1.40
2019-05-30T09:47:08.245Z,1.15
2019-05-30T09:51:11.967Z,1.50
2019-05-30T09:55:16.063Z,1.30
2019-05-30T09:59:19.876Z,1.02
2019-05-30T10:03:23.343Z,1.20
2019-05-30T10:07:26.812Z,1.47
2019-05-30T10:11:30.525Z,1.02
2019-05-30T10:15:33.984Z,1.20
2019-05-30T10:19:37.468Z,1.10
2019-05-30T10:23:41.195Z,1.17
2019-05-30T10:27:46.232Z,1.60
2019-05-30T10:31:50.614Z,1.27
2019-05-30T10:35:54.194Z,1.42
2019-05-30T10:39:59.173Z,1.52
2019-05-30T10:44:03.064Z,1.57
2019-05-30T10:48:06.699Z,1.65
2019-05-30T10:52:10.221Z,1.60
2019-05-30T10:56:13.707Z,1.52
2019-05-30T11:00:19.112Z,1.55
2019-05-30T11:04:22.630Z,1.47
2019-05-30T11:08:28.791Z,1.42
2019-05-30T11:12:32.244Z,1.60
2019-05-30T11:16:35.796Z,1.40
2019-05-30T11:20:42.944Z,1.63
2019-05-30T11:24:46.449Z,1.62
2019-05-30T11:28:50.493Z,1.60
2019-05-30T11:32:55.201Z,1.70
2019-05-30T11:36:59.341Z,1.60
2019-05-30T11:41:04.081Z,1.37
2019-05-30T11:45:09.353Z,1.37
2019-05-30T11:49:12.857Z,1.30
2019-05-30T11:53:16.385Z,1.57
2019-05-30T11:57:20.118Z,1.40
2019-05-30T12:01:23.859Z,1.20
2019-05-30T12:05:27.659Z,1.05
2019-05-30T12:09:31.135Z,1.37
2019-05-30T12:13:34.869Z,1.35
2019-05-30T12:17:38.505Z,1.20
2019-05-30T12:21:41.994Z,1.42
2019-05-30T12:25:45.550Z,1.40
2019-05-30T12:29:49.348Z,1.40
2019-05-30T12:33:54.093Z,1.20
2019-05-30T12:38:01.375Z,1.40
2019-05-30T12:42:03.564Z,1.27
2019-05-30T12:46:07.016Z,1.60
2019-05-30T12:50:11.805Z,1.57
2019-05-30T12:54:15.402Z,1.35
2019-05-30T12:58:18.882Z,1.47
2019-05-30T13:02:22.704Z,1.30
2019-05-30T13:06:32.277Z,1.25
2019-05-30T13:10:47.421Z,1.20
2019-05-30T13:14:57.433Z,1.57
2019-05-30T13:19:08.975Z,1.30
2019-05-30T13:23:20.678Z,1.57
2019-05-30T13:27:29.924Z,1.25
2019-05-30T13:31:44.798Z,1.42
2019-05-30T13:39:57.048Z,1.50
2019-05-30T13:44:05.079Z,1.40
2019-05-30T13:48:17.274Z,1.40
2019-05-30T13:52:22.986Z,1.50
2019-05-30T13:56:30.563Z,1.20
2019-05-30T14:00:40.124Z,1.50
2019-05-30T14:04:43.349Z,1.47
2019-05-30T14:08:46.831Z,1.60
2019-05-30T14:13:08.998Z,1.12
2019-05-30T14:17:19.002Z,1.50
2019-05-30T14:21:26.524Z,1.45
2019-05-30T14:25:33.701Z,1.82
2019-05-30T14:30:13.343Z,1.25
2019-05-30T14:34:15.828Z,1.60
2019-05-30T14:38:22.746Z,1.65
2019-05-30T14:42:34.286Z,1.30
2019-05-30T14:46:33.407Z,1.50
2019-05-30T14:50:37.169Z,1.30
2019-05-30T14:54:40.933Z,1.45
2019-05-30T14:58:44.473Z,1.65
2019-05-30T15:02:48.182Z,1.70
2019-05-30T15:06:51.736Z,1.80
2019-05-30T15:10:55.468Z,2.00
2019-05-30T15:14:59.230Z,1.72
2019-05-30T15:19:03.065Z,1.70
2019-05-30T15:23:07.541Z,1.90
2019-05-30T15:27:12.074Z,1.80
2019-05-30T15:31:16.655Z,2.17
2019-05-30T15:35:20.216Z,2.15
2019-05-30T15:39:32.339Z,2.25
2019-05-30T15:43:29.236Z,1.98
2019-05-30T15:47:32.943Z,2.40
2019-05-30T15:51:36.440Z,2.60
2019-05-30T15:55:39.990Z,2.35
2019-05-30T15:59:43.439Z,2.90
2019-05-30T16:03:47.832Z,2.85
2019-05-30T16:07:51.307Z,2.60
2019-05-30T16:11:54.764Z,3.23
2019-05-30T16:15:58.621Z,3.42
2019-05-30T16:20:02.083Z,3.25
2019-05-30T16:24:05.543Z,3.65
2019-05-30T16:28:09.004Z,3.92
2019-05-30T16:32:13.750Z,4.37
2019-05-30T16:36:18.102Z,4.00
2019-05-30T16:40:22.421Z,3.70
2019-05-30T16:44:26.774Z,3.87
2019-05-30T16:48:30.593Z,4.50
2019-05-30T16:52:34.122Z,5.20
2019-05-30T16:56:37.595Z,5.00
2019-05-30T17:00:41.076Z,4.97
2019-05-30T17:04:44.537Z,5.17
2019-05-30T17:08:47.996Z,4.60
2019-05-30T17:12:51.725Z,4.90
2019-05-30T17:16:55.177Z,4.90
2019-05-30T17:20:58.641Z,4.20
2019-05-30T17:25:02.239Z,5.53
2019-05-30T17:29:05.852Z,4.47
2019-05-30T17:33:09.322Z,5.00
2019-05-30T17:37:12.870Z,6.03
2019-05-30T17:41:16.653Z,5.72
2019-05-30T17:45:21.067Z,5.30
2019-05-30T17:49:25.761Z,6.78
2019-05-30T17:53:30.070Z,6.85
2019-05-30T17:57:33.624Z,7.17
2019-05-30T18:01:37.906Z,7.25
2019-05-30T18:05:41.437Z,7.08
2019-05-30T18:09:45.052Z,7.60
2019-05-30T18:13:48.821Z,7.12
2019-05-30T18:17:52.662Z,7.30
2019-05-30T18:21:56.115Z,6.95
2019-05-30T18:25:59.861Z,8.60
2019-05-30T18:30:04.848Z,8.68
2019-05-30T18:34:08.589Z,8.88
2019-05-30T18:38:12.060Z,8.45
2019-05-30T18:42:15.524Z,8.05
2019-05-30T18:46:19.038Z,8.60
2019-05-30T18:50:23.137Z,7.97
2019-05-30T18:54:26.971Z,7.95
2019-05-30T18:58:31.204Z,8.65
2019-05-30T19:02:35.673Z,8.58
2019-05-30T19:06:39.408Z,8.48
2019-05-30T19:10:42.888Z,9.28
2019-05-30T19:14:46.369Z,10.13
2019-05-30T19:18:50.220Z,9.13
2019-05-30T19:22:53.677Z,10.20
2019-05-30T19:26:57.131Z,10.72
2019-05-30T19:31:00.672Z,11.37
2019-05-30T19:35:08.353Z,11.35
2019-05-30T19:39:11.892Z,12.18
2019-05-30T19:43:15.554Z,11.70
2019-05-30T19:47:19.056Z,10.75
2019-05-30T19:51:22.563Z,11.88
2019-05-30T19:55:26.033Z,11.73
2019-05-30T19:59:29.595Z,13.45
2019-05-30T20:03:42.640Z,12.65
2019-05-30T20:07:38.892Z,13.20
2019-05-30T20:11:42.879Z,12.25
2019-05-30T20:15:46.327Z,13.80
2019-05-30T20:19:49.793Z,13.80
2019-05-30T20:23:58.325Z,14.73
2019-05-30T20:27:58.540Z,12.73
2019-05-30T20:32:02.261Z,13.60
2019-05-30T20:36:05.836Z,13.68
2019-05-30T20:40:10.569Z,13.85
2019-05-30T20:44:14.130Z,14.13
2019-05-30T20:48:17.880Z,13.00
2019-05-30T20:52:21.356Z,12.98
2019-05-30T20:56:24.813Z,14.03
2019-05-30T21:00:40.110Z,12.45
2019-05-30T21:04:44.608Z,13.38
2019-05-30T21:08:50.356Z,14.38
2019-05-30T21:12:54.590Z,13.88
2019-05-30T21:17:00.244Z,12.95
2019-05-30T21:21:04.059Z,13.43
2019-05-30T21:25:08.291Z,13.75
2019-05-30T21:29:11.749Z,13.43
2019-05-30T21:33:15.260Z,13.35
2019-05-30T21:37:19.096Z,14.43
2019-05-30T21:41:22.811Z,14.87
2019-05-30T21:45:26.270Z,14.35
2019-05-30T21:49:29.731Z,15.08
2019-05-30T21:53:33.192Z,14.30
2019-05-30T21:57:36.661Z,14.38
2019-05-30T22:01:40.651Z,13.93
2019-05-30T22:05:44.835Z,13.95
2019-05-30T22:09:49.440Z,14.65
2019-05-30T22:13:53.033Z,14.87
2019-05-30T22:17:56.499Z,15.10
2019-05-30T22:21:59.956Z,15.72
2019-05-30T22:26:03.437Z,14.68
2019-05-30T22:30:07.341Z,13.80
2019-05-30T22:34:11.190Z,14.75
2019-05-30T22:38:14.728Z,15.45
2019-05-30T22:42:18.318Z,15.10
2019-05-30T22:46:21.849Z,14.95
2019-05-30T22:50:25.299Z,16.10
2019-05-30T22:54:28.779Z,13.90
2019-05-30T22:58:32.544Z,15.40
2019-05-30T23:02:35.995Z,15.50
2019-05-30T23:06:39.784Z,15.43
2019-05-30T23:10:43.306Z,14.75
2019-05-30T23:14:47.938Z,15.30
2019-05-30T23:18:52.580Z,14.80
2019-05-30T23:22:57.152Z,14.87
2019-05-30T23:27:01.001Z,15.63
2019-05-30T23:31:04.494Z,15.03
2019-05-30T23:35:08.808Z,15.03
2019-05-30T23:39:12.278Z,15.28
2019-05-30T23:43:16.005Z,14.43
2019-05-30T23:47:19.835Z,14.75
2019-05-30T23:51:23.356Z,15.30
2019-05-30T23:55:26.827Z,14.70
2019-05-30T23:59:30.281Z,15.63
